createdAt,value
2018-06-19T00:00:36.579Z,17.60
2018-06-19T00:03:05.276Z,17.60
2018-06-19T00:05:33.767Z,17.50
2018-06-19T00:08:02.916Z,17.50
2018-06-19T00:10:32.084Z,17.40
2018-06-19T00:13:00.527Z,17.40
2018-06-19T00:15:28.936Z,17.40
2018-06-19T00:18:01.403Z,17.30
2018-06-19T00:20:29.832Z,17.30
2018-06-19T00:22:58.359Z,17.30
2018-06-19T00:25:26.828Z,17.30
2018-06-19T00:27:55.289Z,17.20
2018-06-19T00:30:23.707Z,17.20
2018-06-19T00:32:52.099Z,17.20
2018-06-19T00:35:20.498Z,17.20
2018-06-19T00:37:48.932Z,17.10
2018-06-19T00:40:17.352Z,17.10
2018-06-19T00:42:45.770Z,17.10
2018-06-19T00:45:14.181Z,17.10
2018-06-19T00:47:42.617Z,17.10
2018-06-19T00:52:39.354Z,17.00
2018-06-19T00:55:07.740Z,17.00
2018-06-19T00:57:36.217Z,17.00
2018-06-19T01:00:04.633Z,16.90
2018-06-19T01:02:33.059Z,16.90
2018-06-19T01:05:01.453Z,16.90
2018-06-19T01:07:29.878Z,16.90
2018-06-19T01:09:58.282Z,16.80
2018-06-19T01:12:26.711Z,16.80
2018-06-19T01:14:55.139Z,16.80
2018-06-19T01:17:23.585Z,16.70
2018-06-19T01:19:52.062Z,16.70
2018-06-19T01:22:20.436Z,16.70
2018-06-19T01:24:48.857Z,16.60
2018-06-19T01:27:17.409Z,16.60
2018-06-19T01:32:13.912Z,16.60
2018-06-19T01:34:42.297Z,16.50
2018-06-19T01:37:10.705Z,16.50
2018-06-19T01:39:39.112Z,16.50
2018-06-19T01:42:07.497Z,16.40
2018-06-19T01:44:35.887Z,16.40
2018-06-19T01:47:04.309Z,16.30
2018-06-19T01:49:32.692Z,16.30
2018-06-19T01:52:01.118Z,16.30
2018-06-19T01:54:29.548Z,16.20
2018-06-19T01:56:57.942Z,16.20
2018-06-19T01:59:26.380Z,16.20
2018-06-19T02:01:54.786Z,16.10
2018-06-19T02:04:23.192Z,16.10
2018-06-19T02:06:51.597Z,16.10
2018-06-19T02:09:20.025Z,16.00
2018-06-19T02:11:48.440Z,16.00
2018-06-19T02:14:16.834Z,16.00
2018-06-19T02:16:45.251Z,16.00
2018-06-19T02:19:13.928Z,15.90
2018-06-19T02:21:42.364Z,15.90
2018-06-19T02:29:06.911Z,15.90
2018-06-19T02:31:35.312Z,15.90
2018-06-19T02:34:03.804Z,15.80
2018-06-19T02:36:32.221Z,15.80
2018-06-19T02:39:00.757Z,15.80
2018-06-19T02:41:29.171Z,15.90
2018-06-19T02:46:25.629Z,15.90
2018-06-19T02:48:54.198Z,16.00
2018-06-19T02:51:22.612Z,16.00
2018-06-19T02:53:51.004Z,16.00
2018-06-19T02:56:19.496Z,16.10
2018-06-19T02:58:47.979Z,16.10
2018-06-19T03:01:16.353Z,16.10
2018-06-19T03:03:44.756Z,16.10
2018-06-19T03:06:13.218Z,16.10
2018-06-19T03:08:41.623Z,16.10
2018-06-19T03:11:10.128Z,16.10
2018-06-19T03:13:38.537Z,16.20
2018-06-19T03:16:06.973Z,16.20
2018-06-19T03:18:35.380Z,16.30
2018-06-19T03:21:03.793Z,16.20
2018-06-19T03:23:32.181Z,16.20
2018-06-19T03:26:00.612Z,16.10
2018-06-19T03:28:28.992Z,16.10
2018-06-19T03:30:57.370Z,16.00
2018-06-19T03:33:25.776Z,16.00
2018-06-19T03:38:22.277Z,16.00
2018-06-19T03:40:51.073Z,16.00
2018-06-19T03:43:19.463Z,16.00
2018-06-19T03:45:47.944Z,16.00
2018-06-19T03:48:16.332Z,16.00
2018-06-19T03:50:44.720Z,16.00
2018-06-19T03:53:13.141Z,16.00
2018-06-19T03:55:41.550Z,16.00
2018-06-19T03:58:09.951Z,16.00
2018-06-19T04:00:38.392Z,16.00
2018-06-19T04:03:06.864Z,16.00
2018-06-19T04:05:35.352Z,16.10
2018-06-19T04:08:03.788Z,16.10
2018-06-19T04:10:32.239Z,16.10
2018-06-19T04:13:00.571Z,16.20
2018-06-19T04:15:28.932Z,16.20
2018-06-19T04:17:57.331Z,16.30
2018-06-19T04:20:25.772Z,16.30
2018-06-19T04:22:54.472Z,16.40
2018-06-19T04:25:22.964Z,16.40
2018-06-19T04:27:51.332Z,16.50
2018-06-19T04:30:20.112Z,16.70
2018-06-19T04:35:17.016Z,16.80
2018-06-19T04:37:45.440Z,16.90
2018-06-19T04:40:13.877Z,16.90
2018-06-19T04:42:42.300Z,16.90
2018-06-19T04:45:10.671Z,17.00
2018-06-19T04:47:39.102Z,17.00
2018-06-19T04:50:07.606Z,17.10
2018-06-19T04:52:35.993Z,17.10
2018-06-19T04:55:04.414Z,17.10
2018-06-19T04:57:33.491Z,17.10
2018-06-19T05:00:01.999Z,17.10
2018-06-19T05:02:30.568Z,17.20
2018-06-19T05:05:00.035Z,17.20
2018-06-19T05:07:28.468Z,17.20
2018-06-19T05:09:56.924Z,17.30
2018-06-19T05:12:25.337Z,17.30
2018-06-19T05:14:56.153Z,17.30
2018-06-19T05:17:25.206Z,17.40
2018-06-19T05:19:55.555Z,17.40
2018-06-19T05:22:24.014Z,17.40
2018-06-19T05:24:52.416Z,17.50
2018-06-19T05:27:20.828Z,17.50
2018-06-19T05:29:49.232Z,17.40
2018-06-19T05:32:17.773Z,17.50
2018-06-19T05:34:46.144Z,17.50
2018-06-19T05:37:14.541Z,17.50
2018-06-19T05:39:42.928Z,17.50
2018-06-19T05:42:11.329Z,17.40
2018-06-19T05:44:39.759Z,17.60
2018-06-19T05:47:08.233Z,17.60
2018-06-19T05:49:36.725Z,17.70
2018-06-19T05:52:05.211Z,17.80
2018-06-19T05:54:33.968Z,17.80
2018-06-19T05:57:02.414Z,17.90
2018-06-19T05:59:30.817Z,18.00
2018-06-19T06:01:59.264Z,18.00
2018-06-19T06:04:27.698Z,18.10
2018-06-19T06:06:56.100Z,18.10
2018-06-19T06:09:24.564Z,18.10
2018-06-19T06:11:53.017Z,18.10
2018-06-19T06:14:21.437Z,18.10
2018-06-19T06:16:50.324Z,18.00
2018-06-19T06:19:18.723Z,18.10
2018-06-19T06:21:47.137Z,18.20
2018-06-19T06:24:15.556Z,18.20
2018-06-19T06:26:44.093Z,18.30
2018-06-19T06:29:12.670Z,18.40
2018-06-19T06:31:41.049Z,18.50
2018-06-19T06:34:09.444Z,18.60
2018-06-19T06:36:37.852Z,18.70
2018-06-19T06:39:07.700Z,18.80
2018-06-19T06:44:04.433Z,18.90
2018-06-19T06:46:32.902Z,19.00
2018-06-19T06:49:01.418Z,19.10
2018-06-19T06:51:29.849Z,19.10
2018-06-19T06:53:58.240Z,19.20
2018-06-19T06:56:26.701Z,19.10
2018-06-19T06:58:55.151Z,19.00
2018-06-19T07:01:23.701Z,18.90
2018-06-19T07:03:52.249Z,19.10
2018-06-19T07:06:20.676Z,19.20
2018-06-19T07:08:49.127Z,19.40
2018-06-19T07:11:17.541Z,19.50
2018-06-19T07:13:45.920Z,19.60
2018-06-19T07:16:14.341Z,19.50
2018-06-19T07:18:42.943Z,19.60
2018-06-19T07:21:11.573Z,19.60
2018-06-19T07:23:39.828Z,19.60
2018-06-19T07:26:08.288Z,19.50
2018-06-19T07:28:36.671Z,19.40
2018-06-19T07:31:05.464Z,19.30
2018-06-19T07:33:33.848Z,19.40
2018-06-19T07:36:02.306Z,19.40
2018-06-19T07:38:30.708Z,19.30
2018-06-19T07:40:59.094Z,19.30
2018-06-19T07:43:27.533Z,19.20
2018-06-19T07:45:56.668Z,19.20
2018-06-19T07:48:25.177Z,19.20
2018-06-19T07:50:53.920Z,19.20
2018-06-19T07:53:22.391Z,19.30
2018-06-19T07:55:50.764Z,19.20
2018-06-19T07:58:19.301Z,19.30
2018-06-19T08:00:47.764Z,19.30
2018-06-19T08:03:16.220Z,19.30
2018-06-19T08:05:44.606Z,19.30
2018-06-19T08:08:12.997Z,19.20
2018-06-19T08:10:41.524Z,19.20
2018-06-19T08:13:09.972Z,19.10
2018-06-19T08:15:38.420Z,19.10
2018-06-19T08:18:06.977Z,19.10
2018-06-19T08:20:35.388Z,19.10
2018-06-19T08:23:03.817Z,19.00
2018-06-19T08:25:32.220Z,19.00
2018-06-19T08:28:00.739Z,19.00
2018-06-19T08:30:29.159Z,19.00
2018-06-19T08:32:58.401Z,19.20
2018-06-19T08:35:26.884Z,19.10
2018-06-19T08:37:55.268Z,19.10
2018-06-19T08:40:23.674Z,19.10
2018-06-19T08:42:52.104Z,19.10
2018-06-19T08:45:20.533Z,19.10
2018-06-19T08:47:48.960Z,19.00
2018-06-19T08:50:17.375Z,19.00
2018-06-19T08:52:45.820Z,18.90
2018-06-19T08:55:14.224Z,19.00
2018-06-19T08:57:42.595Z,19.10
2018-06-19T09:00:11.066Z,19.20
2018-06-19T09:02:39.480Z,19.30
2018-06-19T09:05:07.919Z,19.30
2018-06-19T09:07:36.657Z,19.30
2018-06-19T09:10:05.094Z,19.20
2018-06-19T09:12:33.541Z,19.20
2018-06-19T09:15:01.960Z,19.20
2018-06-19T09:17:30.364Z,19.20
2018-06-19T09:19:58.837Z,19.30
2018-06-19T09:22:27.243Z,19.30
2018-06-19T09:24:55.664Z,19.30
2018-06-19T09:27:24.391Z,19.20
2018-06-19T09:29:52.887Z,19.20
2018-06-19T09:32:21.332Z,19.30
2018-06-19T09:34:49.775Z,19.30
2018-06-19T09:37:18.177Z,19.30
2018-06-19T09:39:46.615Z,19.30
2018-06-19T09:42:14.979Z,19.20
2018-06-19T09:44:43.573Z,19.20
2018-06-19T09:47:11.990Z,19.20
2018-06-19T09:49:40.378Z,19.30
2018-06-19T09:52:09.204Z,19.30
2018-06-19T09:54:37.719Z,19.50
2018-06-19T09:57:06.296Z,19.60
2018-06-19T09:59:34.846Z,19.60
2018-06-19T10:02:03.254Z,19.70
2018-06-19T10:04:31.678Z,19.70
2018-06-19T10:07:00.067Z,19.70
2018-06-19T10:09:28.496Z,19.70
2018-06-19T10:11:56.996Z,19.80
2018-06-19T10:14:25.351Z,19.80
2018-06-19T10:16:53.808Z,20.00
2018-06-19T10:19:22.338Z,20.10
2018-06-19T10:21:50.821Z,20.30
2018-06-19T10:24:19.201Z,20.30
2018-06-19T10:26:47.749Z,20.40
2018-06-19T10:29:16.177Z,20.50
2018-06-19T10:31:44.651Z,20.60
2018-06-19T10:34:13.088Z,20.70
2018-06-19T10:36:41.602Z,20.70
2018-06-19T10:39:11.106Z,20.50
2018-06-19T10:41:39.636Z,20.40
2018-06-19T10:44:08.075Z,20.10
2018-06-19T10:46:36.496Z,20.10
2018-06-19T10:49:04.900Z,20.10
2018-06-19T10:51:33.304Z,20.30
2018-06-19T10:54:01.747Z,20.50
2018-06-19T10:56:30.147Z,20.80
2018-06-19T10:58:58.578Z,21.00
2018-06-19T11:01:27.006Z,21.10
2018-06-19T11:03:55.688Z,20.90
2018-06-19T11:06:24.208Z,21.00
2018-06-19T11:08:52.636Z,20.80
2018-06-19T11:11:21.336Z,20.80
2018-06-19T11:13:49.741Z,20.80
2018-06-19T11:16:18.160Z,20.80
2018-06-19T11:18:46.563Z,21.00
2018-06-19T11:21:14.976Z,20.90
2018-06-19T11:23:43.485Z,21.10
2018-06-19T11:26:12.159Z,21.30
2018-06-19T11:28:40.633Z,21.70
2018-06-19T11:31:09.192Z,21.80
2018-06-19T11:33:37.668Z,21.60
2018-06-19T11:36:06.232Z,21.50
2018-06-19T11:38:34.708Z,21.60
2018-06-19T11:43:31.288Z,21.00
2018-06-19T11:48:27.908Z,20.50
2018-06-19T11:50:56.358Z,20.40
2018-06-19T11:53:24.941Z,20.00
2018-06-19T11:55:53.389Z,19.90
2018-06-19T11:58:21.812Z,19.90
2018-06-19T12:00:50.580Z,19.80
2018-06-19T12:03:19.019Z,19.80
2018-06-19T12:05:47.440Z,19.90
2018-06-19T12:08:15.904Z,20.10
2018-06-19T12:10:44.373Z,20.20
2018-06-19T12:13:12.800Z,20.50
2018-06-19T12:15:41.238Z,20.90
2018-06-19T12:18:09.673Z,21.40
2018-06-19T12:20:38.145Z,21.70
2018-06-19T12:23:06.969Z,21.90
2018-06-19T12:25:35.505Z,21.80
2018-06-19T12:28:03.998Z,22.20
2018-06-19T12:30:32.403Z,22.20
2018-06-19T12:33:00.785Z,22.40
2018-06-19T12:35:29.255Z,22.60
2018-06-19T12:37:57.697Z,22.60
2018-06-19T12:40:26.132Z,22.60
2018-06-19T12:42:54.523Z,22.50
2018-06-19T12:45:22.927Z,22.50
2018-06-19T12:47:51.463Z,22.50
2018-06-19T12:50:34.331Z,22.50
2018-06-19T12:53:14.702Z,22.40
2018-06-19T12:55:55.296Z,22.40
2018-06-19T12:58:23.788Z,22.20
2018-06-19T13:00:52.180Z,22.20
2018-06-19T13:03:31.890Z,22.30
2018-06-19T13:06:11.728Z,22.50
2018-06-19T13:08:40.136Z,22.70
2018-06-19T13:11:08.943Z,22.80
2018-06-19T13:13:48.649Z,23.00
2018-06-19T13:16:28.301Z,23.10
2018-06-19T13:19:07.908Z,23.10
2018-06-19T13:21:36.369Z,23.00
2018-06-19T13:24:04.832Z,23.00
2018-06-19T13:26:33.448Z,22.90
2018-06-19T13:29:40.862Z,22.80
2018-06-19T13:32:09.367Z,22.70
2018-06-19T13:34:38.341Z,22.50
2018-06-19T13:37:07.115Z,22.50
2018-06-19T13:39:36.579Z,22.30
2018-06-19T13:42:17.410Z,22.30
2018-06-19T13:45:07.823Z,22.30
2018-06-19T13:47:36.211Z,22.40
2018-06-19T13:50:04.712Z,22.40
2018-06-19T13:52:33.088Z,22.30
2018-06-19T13:56:11.400Z,22.20
2018-06-19T13:58:39.880Z,22.10
2018-06-19T14:01:09.144Z,21.80
2018-06-19T14:03:38.029Z,21.70
2018-06-19T14:06:06.470Z,21.70
2018-06-19T14:08:55.738Z,21.80
2018-06-19T14:11:35.652Z,21.90
2018-06-19T14:14:04.060Z,22.00
2018-06-19T14:16:32.621Z,22.10
2018-06-19T14:19:01.735Z,22.10
2018-06-19T14:21:30.317Z,22.10
2018-06-19T14:23:58.892Z,22.00
2018-06-19T14:26:27.346Z,21.80
2018-06-19T14:28:55.815Z,21.80
2018-06-19T14:31:24.248Z,21.70
2018-06-19T14:33:52.690Z,21.70
2018-06-19T14:36:21.159Z,21.60
2018-06-19T14:38:49.564Z,21.60
2018-06-19T14:41:18.084Z,21.50
2018-06-19T14:43:46.549Z,21.60
2018-06-19T14:46:15.065Z,21.60
2018-06-19T14:48:43.539Z,21.60
2018-06-19T14:51:12.046Z,21.70
2018-06-19T14:53:40.520Z,21.80
2018-06-19T14:56:08.936Z,22.00
2018-06-19T14:58:37.345Z,22.30
2018-06-19T15:01:05.801Z,22.50
2018-06-19T15:03:34.258Z,22.50
2018-06-19T15:06:02.680Z,22.60
2018-06-19T15:08:31.133Z,22.70
2018-06-19T15:10:59.588Z,22.80
2018-06-19T15:13:28.024Z,22.80
2018-06-19T15:15:56.492Z,22.90
2018-06-19T15:18:24.981Z,23.10
2018-06-19T15:20:53.389Z,23.30
2018-06-19T15:23:21.891Z,23.30
2018-06-19T15:25:50.315Z,23.20
2018-06-19T15:30:46.962Z,23.10
2018-06-19T15:33:15.367Z,23.30
2018-06-19T15:35:43.765Z,23.00
2018-06-19T15:38:12.173Z,22.90
2018-06-19T15:40:41.406Z,23.00
2018-06-19T15:43:09.818Z,22.80
2018-06-19T15:45:38.219Z,22.90
2018-06-19T15:48:06.741Z,22.70
2018-06-19T15:50:35.177Z,22.80
2018-06-19T15:53:03.618Z,22.70
2018-06-19T15:55:32.189Z,22.70
2018-06-19T15:58:00.629Z,22.70
2018-06-19T16:00:29.040Z,22.80
2018-06-19T16:02:57.518Z,22.90
2018-06-19T16:05:25.920Z,23.00
2018-06-19T16:07:59.614Z,23.10
2018-06-19T16:10:28.022Z,23.00
2018-06-19T16:12:56.430Z,23.20
2018-06-19T16:15:24.898Z,23.40
2018-06-19T16:17:53.343Z,23.10
2018-06-19T16:20:22.013Z,23.30
2018-06-19T16:22:50.605Z,23.10
2018-06-19T16:25:19.035Z,23.30
2018-06-19T16:27:47.694Z,23.30
2018-06-19T16:32:44.219Z,23.40
2018-06-19T16:35:12.649Z,23.30
2018-06-19T16:37:41.115Z,23.30
2018-06-19T16:40:09.555Z,23.10
2018-06-19T16:42:38.003Z,23.10
2018-06-19T16:45:06.451Z,23.10
2018-06-19T16:47:34.817Z,23.00
2018-06-19T16:50:03.336Z,23.10
2018-06-19T16:52:31.752Z,23.00
2018-06-19T16:55:00.161Z,23.00
2018-06-19T16:57:28.594Z,23.00
2018-06-19T16:59:57.043Z,23.10
2018-06-19T17:02:25.476Z,23.10
2018-06-19T17:04:53.890Z,23.10
2018-06-19T17:07:22.354Z,23.10
2018-06-19T17:12:19.029Z,23.00
2018-06-19T17:14:47.424Z,23.00
2018-06-19T17:17:15.810Z,22.90
2018-06-19T17:19:44.901Z,22.90
2018-06-19T17:22:13.628Z,22.80
2018-06-19T17:24:42.024Z,22.80
2018-06-19T17:27:10.689Z,22.60
2018-06-19T17:29:39.185Z,22.60
2018-06-19T17:32:07.627Z,22.60
2018-06-19T17:34:36.100Z,22.60
2018-06-19T17:37:04.574Z,22.50
2018-06-19T17:39:33.033Z,22.40
2018-06-19T17:44:30.471Z,22.20
2018-06-19T17:46:59.273Z,22.10
2018-06-19T17:49:27.726Z,22.20
2018-06-19T17:51:56.154Z,22.10
2018-06-19T17:54:24.603Z,22.10
2018-06-19T17:56:53.074Z,22.00
2018-06-19T17:59:21.512Z,22.00
2018-06-19T18:01:50.178Z,22.00
2018-06-19T18:04:18.713Z,22.00
2018-06-19T18:06:47.185Z,21.90
2018-06-19T18:09:15.693Z,21.90
2018-06-19T18:11:44.300Z,21.90
2018-06-19T18:14:12.697Z,21.90
2018-06-19T18:16:41.131Z,21.80
2018-06-19T18:19:09.658Z,21.80
2018-06-19T18:21:38.314Z,21.80
2018-06-19T18:24:06.840Z,21.70
2018-06-19T18:26:35.355Z,21.70
2018-06-19T18:29:03.971Z,21.60
2018-06-19T18:31:32.434Z,21.60
2018-06-19T18:34:00.993Z,21.60
2018-06-19T18:36:29.468Z,21.60
2018-06-19T18:38:57.958Z,21.60
2018-06-19T18:41:26.516Z,21.60
2018-06-19T18:46:23.187Z,21.50
2018-06-19T18:48:51.745Z,21.50
2018-06-19T18:51:20.284Z,21.50
2018-06-19T18:53:48.822Z,21.40
2018-06-19T18:56:17.288Z,21.40
2018-06-19T18:58:45.802Z,21.40
2018-06-19T19:01:14.268Z,21.30
2018-06-19T19:03:42.797Z,21.30
2018-06-19T19:06:11.281Z,21.30
2018-06-19T19:08:39.851Z,21.30
2018-06-19T19:11:08.394Z,21.30
2018-06-19T19:13:36.833Z,21.20
2018-06-19T19:16:10.597Z,21.10
2018-06-19T19:18:44.436Z,21.10
2018-06-19T19:21:12.991Z,21.00
2018-06-19T19:23:41.603Z,21.00
2018-06-19T19:26:10.159Z,20.90
2018-06-19T19:28:43.926Z,20.90
2018-06-19T19:31:12.411Z,21.00
2018-06-19T19:33:40.879Z,20.90
2018-06-19T19:36:13.656Z,20.90
2018-06-19T19:38:47.436Z,20.90
2018-06-19T19:41:16.101Z,20.90
2018-06-19T19:43:44.588Z,20.90
2018-06-19T19:46:18.488Z,20.80
2018-06-19T19:48:52.184Z,20.80
2018-06-19T19:51:20.724Z,20.70
2018-06-19T19:53:49.175Z,20.70
2018-06-19T19:56:22.987Z,20.60
2018-06-19T19:58:52.820Z,20.70
2018-06-19T20:01:21.602Z,20.60
2018-06-19T20:03:50.053Z,20.60
2018-06-19T20:06:18.511Z,20.50
2018-06-19T20:08:47.003Z,20.50
2018-06-19T20:11:15.490Z,20.50
2018-06-19T20:13:43.904Z,20.50
2018-06-19T20:16:12.372Z,20.40
2018-06-19T20:18:40.892Z,20.40
2018-06-19T20:21:09.443Z,20.40
2018-06-19T20:23:37.857Z,20.40
2018-06-19T20:26:06.293Z,20.40
2018-06-19T20:28:34.693Z,20.30
2018-06-19T20:31:03.096Z,20.30
2018-06-19T20:33:31.537Z,20.30
2018-06-19T20:36:00.102Z,20.30
2018-06-19T20:38:28.524Z,20.30
2018-06-19T20:40:56.984Z,20.20
2018-06-19T20:43:25.396Z,20.20
2018-06-19T20:45:53.966Z,20.30
2018-06-19T20:48:22.430Z,20.30
2018-06-19T20:50:51.162Z,20.30
2018-06-19T20:53:19.982Z,20.30
2018-06-19T20:55:48.465Z,20.30
2018-06-19T20:58:16.940Z,20.30
2018-06-19T21:00:45.361Z,20.30
2018-06-19T21:03:13.884Z,20.30
2018-06-19T21:05:42.288Z,20.30
2018-06-19T21:08:10.716Z,20.30
2018-06-19T21:10:39.199Z,20.30
2018-06-19T21:13:07.617Z,20.30
2018-06-19T21:15:36.120Z,20.30
2018-06-19T21:18:04.605Z,20.30
2018-06-19T21:20:33.004Z,20.40
2018-06-19T21:23:02.267Z,20.30
2018-06-19T21:25:30.678Z,20.30
2018-06-19T21:27:59.101Z,20.30
2018-06-19T21:30:27.538Z,20.30
2018-06-19T21:32:55.964Z,20.20
2018-06-19T21:35:24.368Z,20.20
2018-06-19T21:37:52.864Z,20.20
2018-06-19T21:40:21.308Z,20.20
2018-06-19T21:42:49.731Z,20.10
2018-06-19T21:45:19.496Z,20.10
2018-06-19T21:50:18.603Z,20.10
2018-06-19T21:52:48.605Z,20.10
2018-06-19T21:55:18.436Z,19.90
2018-06-19T22:00:17.844Z,20.00
2018-06-19T22:02:47.628Z,20.00
2018-06-19T22:05:17.036Z,20.00
2018-06-19T22:07:45.436Z,19.90
2018-06-19T22:10:13.868Z,19.90
2018-06-19T22:12:42.293Z,19.90
2018-06-19T22:15:10.692Z,19.90
2018-06-19T22:17:39.124Z,19.90
2018-06-19T22:20:07.553Z,19.90
2018-06-19T22:22:35.992Z,19.90
2018-06-19T22:25:04.454Z,19.90
2018-06-19T22:27:32.895Z,19.90
2018-06-19T22:30:01.311Z,19.90
2018-06-19T22:32:29.722Z,19.90
2018-06-19T22:34:58.291Z,19.90
2018-06-19T22:37:26.716Z,19.90
2018-06-19T22:39:55.168Z,19.80
2018-06-19T22:42:23.828Z,19.90
2018-06-19T22:44:52.247Z,19.80
2018-06-19T22:47:20.637Z,19.80
2018-06-19T22:49:49.023Z,19.80
2018-06-19T22:52:17.457Z,19.80
2018-06-19T22:54:45.852Z,19.80
2018-06-19T22:57:14.406Z,19.80
2018-06-19T22:59:42.906Z,19.80
2018-06-19T23:02:11.517Z,19.80
2018-06-19T23:04:39.909Z,19.80
2018-06-19T23:07:08.334Z,19.80
2018-06-19T23:09:36.832Z,19.70
2018-06-19T23:12:05.329Z,19.80
2018-06-19T23:14:33.721Z,19.70
2018-06-19T23:17:02.085Z,19.70
2018-06-19T23:19:30.517Z,19.70
2018-06-19T23:21:59.025Z,19.70
2018-06-19T23:24:27.457Z,19.70
2018-06-19T23:26:55.857Z,19.70
2018-06-19T23:29:24.349Z,19.70
2018-06-19T23:31:52.772Z,19.80
2018-06-19T23:34:21.217Z,19.80
2018-06-19T23:36:49.724Z,19.80
2018-06-19T23:39:18.178Z,19.70
2018-06-19T23:41:46.573Z,19.70
2018-06-19T23:44:15.004Z,19.70
2018-06-19T23:46:43.384Z,19.70
2018-06-19T23:49:11.899Z,19.70
2018-06-19T23:51:40.327Z,19.70
2018-06-19T23:54:08.725Z,19.70
2018-06-19T23:56:37.134Z,19.70
2018-06-19T23:59:05.562Z,19.70
